createdAt,value
2017-05-07T00:02:08.455Z,12.69
2017-05-07T00:04:39.308Z,12.66
2017-05-07T00:07:10.077Z,12.70
2017-05-07T00:09:41.882Z,12.64
2017-05-07T00:12:13.635Z,12.68
2017-05-07T00:14:44.432Z,12.74
2017-05-07T00:17:19.273Z,12.65
2017-05-07T00:19:50.178Z,12.60
2017-05-07T00:22:20.960Z,12.58
2017-05-07T00:24:51.858Z,12.55
2017-05-07T00:27:22.649Z,12.55
2017-05-07T00:29:54.207Z,12.53
2017-05-07T00:32:26.059Z,12.56
2017-05-07T00:34:57.814Z,12.54
2017-05-07T00:37:28.608Z,12.53
2017-05-07T00:39:59.460Z,12.52
2017-05-07T00:42:31.126Z,12.59
2017-05-07T00:45:02.860Z,12.58
2017-05-07T00:47:33.642Z,12.55
2017-05-07T00:50:04.481Z,12.65
2017-05-07T00:52:35.268Z,12.70
2017-05-07T00:55:06.169Z,12.73
2017-05-07T00:57:36.955Z,12.63
2017-05-07T01:00:07.852Z,12.52
2017-05-07T01:02:38.772Z,12.51
2017-05-07T01:05:09.579Z,12.51
2017-05-07T01:07:40.447Z,12.63
2017-05-07T01:10:11.219Z,12.68
2017-05-07T01:12:42.979Z,12.61
2017-05-07T01:15:13.747Z,12.53
2017-05-07T01:17:44.749Z,12.42
2017-05-07T01:20:15.528Z,12.41
2017-05-07T01:22:47.911Z,12.48
2017-05-07T01:25:18.700Z,12.44
2017-05-07T01:27:49.543Z,12.39
2017-05-07T01:30:20.400Z,12.34
2017-05-07T01:32:51.179Z,12.36
2017-05-07T01:35:22.067Z,12.39
2017-05-07T01:37:52.842Z,12.45
2017-05-07T01:40:23.787Z,12.52
2017-05-07T01:42:54.659Z,12.46
2017-05-07T01:45:25.583Z,12.43
2017-05-07T01:47:56.831Z,12.42
2017-05-07T01:50:27.671Z,12.34
2017-05-07T01:52:58.555Z,12.37
2017-05-07T01:55:29.329Z,12.46
2017-05-07T01:58:00.163Z,12.42
2017-05-07T02:00:30.958Z,12.45
2017-05-07T02:03:01.899Z,12.44
2017-05-07T02:05:32.683Z,12.48
2017-05-07T02:08:03.500Z,12.48
2017-05-07T02:10:35.151Z,12.48
2017-05-07T02:13:06.021Z,12.44
2017-05-07T02:15:36.927Z,12.43
2017-05-07T02:18:07.759Z,12.40
2017-05-07T02:20:38.601Z,12.37
2017-05-07T02:23:09.389Z,12.37
2017-05-07T02:25:40.295Z,12.36
2017-05-07T02:28:11.070Z,12.41
2017-05-07T02:30:41.917Z,12.42
2017-05-07T02:33:12.739Z,12.40
2017-05-07T02:35:43.524Z,12.32
2017-05-07T02:38:15.304Z,12.30
2017-05-07T02:40:46.119Z,12.28
2017-05-07T02:43:17.854Z,12.37
2017-05-07T02:45:48.678Z,12.31
2017-05-07T02:48:19.467Z,12.24
2017-05-07T02:50:51.632Z,12.29
2017-05-07T02:53:22.551Z,12.26
2017-05-07T02:55:53.394Z,12.24
2017-05-07T02:58:24.267Z,12.25
2017-05-07T03:00:55.143Z,12.23
2017-05-07T03:03:26.996Z,12.10
2017-05-07T03:05:57.843Z,12.12
2017-05-07T03:08:28.631Z,12.07
2017-05-07T03:10:59.641Z,11.99
2017-05-07T03:13:30.483Z,12.01
2017-05-07T03:16:02.236Z,12.03
2017-05-07T03:18:33.067Z,12.04
2017-05-07T03:21:03.912Z,12.03
2017-05-07T03:23:34.716Z,12.03
2017-05-07T03:26:05.567Z,12.06
2017-05-07T03:28:36.389Z,12.07
2017-05-07T03:31:07.352Z,12.00
2017-05-07T03:33:38.139Z,11.97
2017-05-07T03:36:08.988Z,12.01
2017-05-07T03:38:39.783Z,11.95
2017-05-07T03:41:10.625Z,11.98
2017-05-07T03:43:42.348Z,12.01
2017-05-07T03:46:13.183Z,11.98
2017-05-07T03:48:43.628Z,12.09
2017-05-07T03:51:14.507Z,12.15
2017-05-07T03:53:45.286Z,12.10
2017-05-07T03:56:16.172Z,12.04
2017-05-07T03:58:46.975Z,11.90
2017-05-07T04:01:18.168Z,11.88
2017-05-07T04:03:49.084Z,11.94
2017-05-07T04:06:21.296Z,11.92
2017-05-07T04:08:52.114Z,11.88
2017-05-07T04:11:22.895Z,11.93
2017-05-07T04:13:53.731Z,11.97
2017-05-07T04:16:24.687Z,12.03
2017-05-07T04:18:55.582Z,12.01
2017-05-07T04:21:26.581Z,12.01
2017-05-07T04:23:57.442Z,12.09
2017-05-07T04:26:29.187Z,12.15
2017-05-07T04:28:59.955Z,12.08
2017-05-07T04:31:30.790Z,12.03
2017-05-07T04:34:01.582Z,12.03
2017-05-07T04:36:32.407Z,12.05
2017-05-07T04:39:03.090Z,12.12
2017-05-07T04:41:34.214Z,12.09
2017-05-07T04:44:04.998Z,12.07
2017-05-07T04:46:36.776Z,12.06
2017-05-07T04:49:07.605Z,12.04
2017-05-07T04:51:38.473Z,11.94
2017-05-07T04:54:09.349Z,11.91
2017-05-07T04:56:40.122Z,11.89
2017-05-07T04:59:11.040Z,11.92
2017-05-07T05:01:41.838Z,12.08
2017-05-07T05:04:12.729Z,12.12
2017-05-07T05:06:43.509Z,12.12
2017-05-07T05:09:14.356Z,12.17
2017-05-07T05:11:45.176Z,12.10
2017-05-07T05:14:16.081Z,12.08
2017-05-07T05:16:46.867Z,12.14
2017-05-07T05:19:32.334Z,12.06
2017-05-07T05:25:18.094Z,12.11
2017-05-07T05:28:21.186Z,12.20
2017-05-07T05:31:03.867Z,12.22
2017-05-07T05:33:35.771Z,12.30
2017-05-07T05:36:09.878Z,12.27
2017-05-07T05:38:43.613Z,12.12
2017-05-07T05:41:16.047Z,12.14
2017-05-07T05:43:47.577Z,12.34
2017-05-07T05:46:19.517Z,12.38
2017-05-07T05:48:51.216Z,12.49
2017-05-07T05:51:22.406Z,12.39
2017-05-07T05:53:54.114Z,12.43
2017-05-07T05:56:26.012Z,12.52
2017-05-07T05:58:59.367Z,12.57
2017-05-07T06:01:32.337Z,12.68
2017-05-07T06:04:04.731Z,12.86
2017-05-07T06:06:36.044Z,12.96
2017-05-07T06:09:07.425Z,12.93
2017-05-07T06:11:38.594Z,12.93
2017-05-07T06:14:10.131Z,12.96
2017-05-07T06:16:41.108Z,12.94
2017-05-07T06:19:12.348Z,12.91
2017-05-07T06:21:43.245Z,12.88
2017-05-07T06:24:14.169Z,12.96
2017-05-07T06:26:45.445Z,12.96
2017-05-07T06:29:16.781Z,13.04
2017-05-07T06:31:48.388Z,13.05
2017-05-07T06:34:19.806Z,13.07
2017-05-07T06:36:51.534Z,13.10
2017-05-07T06:39:23.082Z,13.15
2017-05-07T06:41:54.778Z,13.22
2017-05-07T06:44:26.545Z,13.26
2017-05-07T06:46:57.404Z,13.46
2017-05-07T06:49:28.353Z,13.59
2017-05-07T06:51:59.209Z,13.52
2017-05-07T06:54:30.033Z,13.51
2017-05-07T06:57:00.922Z,13.50
2017-05-07T06:59:31.748Z,13.55
2017-05-07T07:02:02.630Z,13.60
2017-05-07T07:04:33.753Z,13.62
2017-05-07T07:07:04.268Z,13.72
2017-05-07T07:09:34.674Z,13.80
2017-05-07T07:12:05.673Z,13.89
2017-05-07T07:14:36.538Z,13.94
2017-05-07T07:17:08.249Z,14.04
2017-05-07T07:19:39.216Z,14.10
2017-05-07T07:22:10.106Z,14.17
2017-05-07T07:24:40.950Z,14.23
2017-05-07T07:27:12.277Z,14.32
2017-05-07T07:29:43.512Z,14.52
2017-05-07T07:32:14.372Z,14.51
2017-05-07T07:34:45.205Z,14.50
2017-05-07T07:37:16.163Z,14.63
2017-05-07T07:39:47.127Z,14.77
2017-05-07T07:42:17.983Z,14.99
2017-05-07T07:44:48.813Z,15.17
2017-05-07T07:47:19.492Z,15.17
2017-05-07T07:49:50.326Z,15.02
2017-05-07T07:52:21.223Z,14.90
2017-05-07T07:54:52.048Z,14.87
2017-05-07T07:57:22.908Z,14.90
2017-05-07T07:59:53.666Z,15.18
2017-05-07T08:02:24.623Z,15.37
2017-05-07T08:04:55.495Z,15.45
2017-05-07T08:07:26.531Z,15.40
2017-05-07T08:09:57.357Z,15.23
2017-05-07T08:12:28.302Z,15.32
2017-05-07T08:14:59.133Z,15.58
2017-05-07T08:17:30.017Z,15.81
2017-05-07T08:20:00.843Z,16.01
2017-05-07T08:22:31.709Z,16.15
2017-05-07T08:25:02.533Z,16.12
2017-05-07T08:27:33.384Z,16.11
2017-05-07T08:30:04.244Z,16.01
2017-05-07T08:32:35.172Z,16.10
2017-05-07T08:35:06.006Z,16.22
2017-05-07T08:37:37.026Z,16.14
2017-05-07T08:40:07.904Z,16.04
2017-05-07T08:42:38.784Z,16.00
2017-05-07T08:45:09.616Z,16.04
2017-05-07T08:47:40.488Z,16.09
2017-05-07T08:50:11.308Z,16.18
2017-05-07T08:52:42.166Z,16.16
2017-05-07T08:55:12.984Z,16.15
2017-05-07T08:57:43.993Z,16.18
2017-05-07T09:00:14.859Z,16.21
2017-05-07T09:02:46.276Z,16.31
2017-05-07T09:05:17.978Z,16.24
2017-05-07T09:07:50.188Z,16.30
2017-05-07T09:10:22.225Z,16.42
2017-05-07T09:13:08.366Z,16.38
2017-05-07T09:16:00.489Z,16.28
2017-05-07T09:18:33.616Z,16.41
2017-05-07T09:21:06.588Z,16.52
2017-05-07T09:23:38.228Z,16.64
2017-05-07T09:26:09.994Z,16.66
2017-05-07T09:28:42.850Z,16.69
2017-05-07T09:31:16.538Z,16.41
2017-05-07T09:33:49.104Z,16.57
2017-05-07T09:36:21.992Z,16.63
2017-05-07T09:38:53.850Z,16.65
2017-05-07T09:41:25.627Z,16.53
2017-05-07T09:43:58.637Z,16.53
2017-05-07T09:46:30.079Z,16.55
2017-05-07T09:49:01.450Z,16.62
2017-05-07T09:51:34.040Z,16.59
2017-05-07T09:54:07.292Z,16.61
2017-05-07T09:56:41.169Z,16.74
2017-05-07T09:59:13.290Z,16.92
2017-05-07T10:01:45.593Z,16.96
2017-05-07T10:04:18.173Z,17.06
2017-05-07T10:06:50.217Z,17.16
2017-05-07T10:09:22.492Z,17.13
2017-05-07T10:11:53.713Z,16.90
2017-05-07T10:14:26.799Z,16.83
2017-05-07T10:16:58.522Z,16.86
2017-05-07T10:19:32.495Z,16.89
2017-05-07T10:22:05.407Z,16.93
2017-05-07T10:24:36.775Z,16.93
2017-05-07T10:27:09.196Z,17.01
2017-05-07T10:29:41.588Z,17.08
2017-05-07T10:32:13.945Z,17.24
2017-05-07T10:34:45.806Z,17.37
2017-05-07T10:37:18.367Z,17.32
2017-05-07T10:39:50.376Z,17.24
2017-05-07T10:42:22.535Z,17.28
2017-05-07T10:44:54.749Z,17.35
2017-05-07T10:47:28.234Z,17.49
2017-05-07T10:49:59.803Z,17.64
2017-05-07T10:52:31.796Z,17.78
2017-05-07T10:55:03.440Z,17.81
2017-05-07T10:57:36.476Z,17.95
2017-05-07T11:00:10.702Z,17.98
2017-05-07T11:02:43.798Z,18.14
2017-05-07T11:05:15.462Z,18.15
2017-05-07T11:07:46.475Z,18.24
2017-05-07T11:10:18.212Z,18.21
2017-05-07T11:12:49.120Z,18.16
2017-05-07T11:15:20.823Z,18.26
2017-05-07T11:17:52.644Z,18.21
2017-05-07T11:20:23.696Z,18.52
2017-05-07T11:22:54.800Z,18.54
2017-05-07T11:25:25.687Z,18.49
2017-05-07T11:27:56.636Z,18.45
2017-05-07T11:30:27.582Z,18.29
2017-05-07T11:32:58.434Z,18.18
2017-05-07T11:35:28.953Z,17.95
2017-05-07T11:37:59.804Z,18.03
2017-05-07T11:40:30.734Z,17.96
2017-05-07T11:43:01.577Z,17.77
2017-05-07T11:45:32.482Z,17.65
2017-05-07T11:48:03.306Z,17.63
2017-05-07T11:50:33.994Z,17.56
2017-05-07T11:53:05.805Z,17.56
2017-05-07T11:55:36.676Z,17.48
2017-05-07T11:58:07.495Z,17.54
2017-05-07T12:00:38.361Z,17.47
2017-05-07T12:03:09.201Z,17.32
2017-05-07T12:05:40.108Z,17.22
2017-05-07T12:08:10.924Z,17.14
2017-05-07T12:10:41.876Z,17.13
2017-05-07T12:13:12.718Z,17.04
2017-05-07T12:15:43.650Z,17.01
2017-05-07T12:18:14.496Z,17.02
2017-05-07T12:20:45.382Z,17.09
2017-05-07T12:23:16.229Z,17.08
2017-05-07T12:25:47.557Z,17.14
2017-05-07T12:28:18.393Z,17.19
2017-05-07T12:30:49.286Z,17.27
2017-05-07T12:33:20.139Z,17.37
2017-05-07T12:35:50.739Z,17.41
2017-05-07T12:38:21.586Z,17.47
2017-05-07T12:40:52.531Z,17.54
2017-05-07T12:43:23.371Z,17.57
2017-05-07T12:45:54.353Z,17.56
2017-05-07T12:48:25.235Z,17.60
2017-05-07T12:50:56.135Z,17.59
2017-05-07T12:53:27.087Z,17.58
2017-05-07T12:55:57.963Z,17.65
2017-05-07T12:58:28.788Z,17.75
2017-05-07T13:00:59.659Z,17.85
2017-05-07T13:03:30.490Z,17.96
2017-05-07T13:06:01.398Z,18.10
2017-05-07T13:08:32.391Z,18.11
2017-05-07T13:11:04.762Z,18.02
2017-05-07T13:13:35.614Z,17.97
2017-05-07T13:16:06.475Z,18.06
2017-05-07T13:18:37.677Z,18.18
2017-05-07T13:21:08.601Z,18.29
2017-05-07T13:23:39.429Z,18.22
2017-05-07T13:26:10.325Z,18.26
2017-05-07T13:28:41.164Z,18.36
2017-05-07T13:31:12.099Z,18.23
2017-05-07T13:33:44.566Z,18.36
2017-05-07T13:36:15.566Z,18.47
2017-05-07T13:38:46.414Z,18.59
2017-05-07T13:41:17.343Z,18.65
2017-05-07T13:43:48.184Z,18.66
2017-05-07T13:46:19.056Z,18.55
2017-05-07T13:48:49.890Z,18.59
2017-05-07T13:51:20.789Z,18.74
2017-05-07T13:53:51.822Z,18.71
2017-05-07T13:56:23.730Z,18.75
2017-05-07T13:58:54.762Z,18.77
2017-05-07T14:01:25.701Z,18.56
2017-05-07T14:03:56.685Z,18.38
2017-05-07T14:06:27.737Z,18.39
2017-05-07T14:08:58.576Z,18.36
2017-05-07T14:11:29.462Z,18.33
2017-05-07T14:14:00.344Z,18.36
2017-05-07T14:16:31.224Z,18.46
2017-05-07T14:19:02.069Z,18.39
2017-05-07T14:21:32.970Z,18.35
2017-05-07T14:24:03.880Z,18.37
2017-05-07T14:26:34.783Z,18.30
2017-05-07T14:29:05.614Z,18.33
2017-05-07T14:31:36.486Z,18.42
2017-05-07T14:34:07.369Z,18.49
2017-05-07T14:36:38.257Z,18.56
2017-05-07T14:39:09.219Z,18.70
2017-05-07T14:41:40.195Z,18.84
2017-05-07T14:44:11.038Z,18.95
2017-05-07T14:46:41.916Z,18.99
2017-05-07T14:49:14.185Z,18.98
2017-05-07T14:51:45.096Z,18.94
2017-05-07T14:54:15.977Z,18.87
2017-05-07T14:56:46.866Z,18.93
2017-05-07T14:59:17.734Z,18.96
2017-05-07T15:01:48.634Z,18.98
2017-05-07T15:04:19.488Z,18.91
2017-05-07T15:06:50.432Z,18.71
2017-05-07T15:09:21.322Z,18.61
2017-05-07T15:11:52.183Z,18.58
2017-05-07T15:14:23.101Z,18.69
2017-05-07T15:16:54.099Z,18.68
2017-05-07T15:19:25.004Z,18.67
2017-05-07T15:21:55.914Z,18.52
2017-05-07T15:24:26.806Z,18.51
2017-05-07T15:26:57.666Z,18.48
2017-05-07T15:29:28.543Z,18.41
2017-05-07T15:31:59.490Z,18.35
2017-05-07T15:34:30.349Z,18.42
2017-05-07T15:37:01.207Z,18.42
2017-05-07T15:39:32.093Z,18.48
2017-05-07T15:42:03.077Z,18.54
2017-05-07T15:44:33.945Z,18.52
2017-05-07T15:47:04.989Z,18.47
2017-05-07T15:49:36.559Z,18.43
2017-05-07T15:52:07.429Z,18.51
2017-05-07T15:54:38.289Z,18.57
2017-05-07T15:57:09.845Z,18.60
2017-05-07T15:59:40.665Z,18.75
2017-05-07T16:02:11.560Z,18.90
2017-05-07T16:04:42.397Z,18.96
2017-05-07T16:07:13.277Z,19.02
2017-05-07T16:09:44.131Z,19.13
2017-05-07T16:12:15.004Z,19.17
2017-05-07T16:14:45.842Z,19.14
2017-05-07T16:23:47.909Z,18.90
2017-05-07T16:26:26.830Z,18.94
2017-05-07T16:29:18.985Z,18.86
2017-05-07T16:31:49.304Z,18.72
2017-05-07T16:34:19.635Z,18.64
2017-05-07T16:36:49.913Z,18.58
2017-05-07T16:39:20.215Z,18.53
2017-05-07T16:41:50.538Z,18.48
2017-05-07T16:44:20.899Z,18.43
2017-05-07T16:46:51.235Z,18.37
2017-05-07T16:49:21.559Z,18.34
2017-05-07T16:51:51.923Z,18.34
2017-05-07T16:54:22.233Z,18.32
2017-05-07T16:56:52.547Z,18.28
2017-05-07T16:59:22.943Z,18.24
2017-05-07T17:01:53.187Z,18.27
2017-05-07T17:04:23.440Z,18.22
2017-05-07T17:06:59.235Z,18.20
2017-05-07T17:09:29.666Z,18.14
2017-05-07T17:11:59.952Z,18.12
2017-05-07T17:14:30.304Z,18.12
2017-05-07T17:17:00.608Z,18.07
2017-05-07T17:19:31.031Z,18.06
2017-05-07T17:22:01.310Z,18.04
2017-05-07T17:24:31.657Z,18.01
2017-05-07T17:27:02.356Z,18.00
2017-05-07T17:29:33.553Z,17.91
2017-05-07T17:32:04.621Z,17.91
2017-05-07T17:34:35.863Z,17.90
2017-05-07T17:37:07.055Z,17.89
2017-05-07T17:39:37.981Z,17.89
2017-05-07T17:42:08.790Z,17.85
2017-05-07T17:44:39.645Z,17.81
2017-05-07T17:47:10.061Z,17.78
2017-05-07T17:49:40.889Z,17.79
2017-05-07T17:52:11.654Z,17.75
2017-05-07T17:54:42.599Z,17.72
2017-05-07T17:57:13.365Z,17.71
2017-05-07T17:59:44.211Z,17.67
2017-05-07T18:02:14.975Z,17.65
2017-05-07T18:04:45.796Z,17.64
2017-05-07T18:07:16.614Z,17.59
2017-05-07T18:09:47.824Z,17.53
2017-05-07T18:12:19.667Z,17.52
2017-05-07T18:14:50.792Z,17.50
2017-05-07T18:17:21.608Z,17.42
2017-05-07T18:19:52.441Z,17.39
2017-05-07T18:22:23.208Z,17.36
2017-05-07T18:24:54.186Z,17.28
2017-05-07T18:27:24.981Z,17.25
2017-05-07T18:29:55.822Z,17.24
2017-05-07T18:32:29.460Z,17.23
2017-05-07T18:35:01.814Z,17.22
2017-05-07T18:37:32.630Z,17.19
2017-05-07T18:40:03.490Z,17.20
2017-05-07T18:42:34.680Z,17.19
2017-05-07T18:45:05.564Z,17.18
2017-05-07T18:47:36.326Z,17.18
2017-05-07T18:50:07.686Z,17.14
2017-05-07T18:52:40.744Z,17.11
2017-05-07T18:55:11.753Z,17.10
2017-05-07T18:57:42.939Z,17.08
2017-05-07T19:00:14.595Z,17.07
2017-05-07T19:02:45.610Z,17.00
2017-05-07T19:05:17.865Z,17.00
2017-05-07T19:07:49.212Z,16.99
2017-05-07T19:10:20.215Z,16.97
2017-05-07T19:12:53.142Z,16.94
2017-05-07T19:15:24.988Z,16.96
2017-05-07T19:17:57.317Z,16.94
2017-05-07T19:20:28.745Z,16.92
2017-05-07T19:23:01.064Z,16.91
2017-05-07T19:25:33.093Z,16.89
2017-05-07T19:28:04.428Z,16.83
2017-05-07T19:30:36.757Z,16.81
2017-05-07T19:33:09.044Z,16.78
2017-05-07T19:35:40.623Z,16.79
2017-05-07T19:38:11.889Z,16.79
2017-05-07T19:40:43.372Z,16.77
2017-05-07T19:43:14.748Z,16.72
2017-05-07T19:45:45.940Z,16.71
2017-05-07T19:48:17.181Z,16.66
2017-05-07T19:50:48.736Z,16.62
2017-05-07T19:53:19.562Z,16.61
2017-05-07T19:55:50.842Z,16.56
2017-05-07T19:58:21.637Z,16.55
2017-05-07T20:00:52.796Z,16.55
2017-05-07T20:03:23.784Z,16.56
2017-05-07T20:05:54.647Z,16.56
2017-05-07T20:08:25.582Z,16.54
2017-05-07T20:10:56.511Z,16.55
2017-05-07T20:13:30.283Z,16.56
2017-05-07T20:16:02.596Z,16.55
2017-05-07T20:18:33.366Z,16.57
2017-05-07T20:21:04.210Z,16.51
2017-05-07T20:23:35.039Z,16.50
2017-05-07T20:26:05.850Z,16.40
2017-05-07T20:28:36.628Z,16.40
2017-05-07T20:31:07.519Z,16.41
2017-05-07T20:33:38.285Z,16.31
2017-05-07T20:36:09.713Z,16.22
2017-05-07T20:38:40.483Z,16.30
2017-05-07T20:41:11.353Z,16.31
2017-05-07T20:43:42.131Z,16.32
2017-05-07T20:46:12.954Z,16.29
2017-05-07T20:48:43.752Z,16.34
2017-05-07T20:51:14.687Z,16.31
2017-05-07T20:53:45.474Z,16.29
2017-05-07T20:56:16.305Z,16.25
2017-05-07T20:58:47.107Z,16.24
2017-05-07T21:01:17.955Z,16.19
2017-05-07T21:03:48.795Z,16.18
2017-05-07T21:08:48.751Z,16.19
2017-05-07T21:11:19.599Z,16.15
2017-05-07T21:13:50.429Z,16.10
2017-05-07T21:16:21.265Z,16.14
2017-05-07T21:18:52.084Z,16.13
2017-05-07T21:21:22.969Z,16.17
2017-05-07T21:23:53.742Z,16.17
2017-05-07T21:26:24.569Z,16.15
2017-05-07T21:28:55.382Z,16.07
2017-05-07T21:31:26.307Z,16.13
2017-05-07T21:33:57.154Z,16.08
2017-05-07T21:36:28.044Z,16.11
2017-05-07T21:38:58.840Z,16.07
2017-05-07T21:41:29.683Z,16.08
2017-05-07T21:44:00.496Z,16.01
2017-05-07T21:46:31.357Z,16.02
2017-05-07T21:49:02.155Z,16.00
2017-05-07T21:51:33.007Z,15.99
2017-05-07T21:54:03.847Z,15.90
2017-05-07T21:56:34.721Z,15.92
2017-05-07T21:59:05.555Z,15.94
2017-05-07T22:01:36.456Z,15.91
2017-05-07T22:04:07.242Z,15.96
2017-05-07T22:06:38.063Z,15.94
2017-05-07T22:09:08.902Z,15.92
2017-05-07T22:11:40.635Z,15.80
2017-05-07T22:14:11.415Z,15.81
2017-05-07T22:16:42.211Z,15.75
2017-05-07T22:19:13.008Z,15.69
2017-05-07T22:21:43.907Z,15.66
2017-05-07T22:24:14.869Z,15.67
2017-05-07T22:26:45.669Z,15.72
2017-05-07T22:29:16.459Z,15.68
2017-05-07T22:31:47.300Z,15.67
2017-05-07T22:34:18.089Z,15.65
2017-05-07T22:36:48.910Z,15.67
2017-05-07T22:39:20.658Z,15.67
2017-05-07T22:41:51.502Z,15.63
2017-05-07T22:44:22.310Z,15.70
2017-05-07T22:46:53.208Z,15.63
2017-05-07T22:49:23.986Z,15.61
2017-05-07T22:51:54.855Z,15.57
2017-05-07T22:54:25.695Z,15.52
2017-05-07T22:56:56.593Z,15.52
2017-05-07T22:59:28.035Z,15.53
2017-05-07T23:01:58.873Z,15.48
2017-05-07T23:04:29.653Z,15.53
2017-05-07T23:07:00.471Z,15.49
2017-05-07T23:09:31.275Z,15.41
2017-05-07T23:12:02.982Z,15.42
2017-05-07T23:14:33.819Z,15.37
2017-05-07T23:17:04.630Z,15.31
2017-05-07T23:19:35.415Z,15.34
2017-05-07T23:22:06.260Z,15.28
2017-05-07T23:24:37.058Z,15.23
2017-05-07T23:27:07.907Z,15.11
2017-05-07T23:29:38.726Z,14.98
2017-05-07T23:32:09.691Z,15.11
2017-05-07T23:34:40.477Z,15.10
2017-05-07T23:37:11.351Z,15.12
2017-05-07T23:39:42.143Z,15.08
2017-05-07T23:42:12.986Z,15.08
2017-05-07T23:44:43.850Z,15.09
2017-05-07T23:47:14.699Z,15.12
2017-05-07T23:49:45.502Z,15.11
2017-05-07T23:52:16.413Z,15.12
2017-05-07T23:54:47.193Z,15.15
2017-05-07T23:57:18.148Z,15.11
2017-05-07T23:59:48.916Z,15.09
